createdAt,value
2018-07-06T00:03:12.653Z,6.97
2018-07-06T00:08:13.249Z,8.10
2018-07-06T00:13:13.510Z,7.63
2018-07-06T00:18:23.118Z,6.00
2018-07-06T00:23:23.290Z,6.53
2018-07-06T00:28:24.552Z,6.77
2018-07-06T00:33:25.035Z,6.73
2018-07-06T00:38:26.316Z,6.03
2018-07-06T00:43:26.739Z,7.37
2018-07-06T00:48:27.113Z,6.97
2018-07-06T00:53:27.240Z,7.23
2018-07-06T00:58:27.879Z,6.93
2018-07-06T01:03:28.229Z,6.50
2018-07-06T01:08:29.974Z,6.20
2018-07-06T01:13:30.384Z,7.07
2018-07-06T01:18:34.315Z,6.13
2018-07-06T01:23:34.567Z,6.53
2018-07-06T01:28:35.948Z,6.97
2018-07-06T01:33:36.266Z,6.27
2018-07-06T01:38:37.485Z,7.00
2018-07-06T01:43:37.788Z,7.00
2018-07-06T01:48:39.284Z,7.10
2018-07-06T01:53:39.550Z,6.27
2018-07-06T01:58:40.034Z,7.93
2018-07-06T02:03:40.489Z,7.60
2018-07-06T02:08:40.881Z,7.50
2018-07-06T02:13:41.333Z,9.47
2018-07-06T02:18:41.718Z,7.20
2018-07-06T02:23:42.267Z,8.23
2018-07-06T02:28:42.693Z,7.40
2018-07-06T02:33:42.965Z,6.77
2018-07-06T02:38:46.905Z,7.23
2018-07-06T02:43:47.052Z,6.97
2018-07-06T02:48:48.296Z,6.93
2018-07-06T02:53:48.630Z,8.03
2018-07-06T02:58:52.533Z,7.37
2018-07-06T03:03:52.922Z,8.77
2018-07-06T03:08:54.259Z,7.43
2018-07-06T03:13:54.601Z,6.77
2018-07-06T03:18:55.906Z,9.07
2018-07-06T03:23:56.320Z,9.60
2018-07-06T03:28:57.827Z,9.00
2018-07-06T03:33:58.122Z,8.20
2018-07-06T03:38:58.630Z,9.73
2018-07-06T03:43:58.893Z,8.87
2018-07-06T03:49:00.250Z,9.90
2018-07-06T03:54:00.514Z,9.83
2018-07-06T03:59:00.805Z,8.60
2018-07-06T04:04:01.115Z,8.80
2018-07-06T04:09:02.437Z,8.03
2018-07-06T04:14:02.815Z,8.60
2018-07-06T04:19:09.063Z,8.40
2018-07-06T04:24:09.250Z,10.73
2018-07-06T04:29:13.074Z,7.30
2018-07-06T04:34:13.378Z,9.30
2018-07-06T04:39:14.974Z,7.67
2018-07-06T04:44:15.320Z,8.13
2018-07-06T04:49:15.768Z,7.97
2018-07-06T04:54:16.099Z,8.13
2018-07-06T04:59:16.417Z,8.87
2018-07-06T05:04:16.674Z,6.87
2018-07-06T05:09:17.198Z,7.13
2018-07-06T05:14:17.717Z,7.23
2018-07-06T05:19:19.106Z,6.53
2018-07-06T05:24:19.495Z,7.73
2018-07-06T05:29:19.908Z,7.33
2018-07-06T05:34:20.190Z,7.90
2018-07-06T05:39:20.545Z,7.67
2018-07-06T05:44:20.740Z,7.30
2018-07-06T05:49:24.217Z,6.50
2018-07-06T05:54:24.579Z,7.90
2018-07-06T05:59:26.338Z,5.87
2018-07-06T06:04:26.697Z,5.40
2018-07-06T06:09:20.077Z,6.33
2018-07-06T06:14:03.597Z,6.20
2018-07-06T06:18:50.303Z,7.17
2018-07-06T06:23:33.814Z,5.50
2018-07-06T06:28:22.828Z,5.83
2018-07-06T06:33:06.571Z,5.97
2018-07-06T06:37:51.206Z,5.23
2018-07-06T06:42:34.745Z,5.03
2018-07-06T06:47:18.246Z,5.17
2018-07-06T06:52:01.694Z,4.83
2018-07-06T06:56:45.359Z,9.27
2018-07-06T07:01:28.929Z,7.40
2018-07-06T07:06:12.421Z,4.47
2018-07-06T07:10:56.052Z,4.00
2018-07-06T07:15:39.615Z,3.80
2018-07-06T07:20:26.662Z,5.97
2018-07-06T07:25:10.239Z,3.73
2018-07-06T07:29:57.255Z,3.43
2018-07-06T07:34:40.800Z,3.53
2018-07-06T07:39:25.955Z,5.30
2018-07-06T07:44:09.475Z,3.70
2018-07-06T07:48:56.584Z,4.47
2018-07-06T07:53:50.891Z,4.40
2018-07-06T07:58:37.532Z,3.67
2018-07-06T08:03:20.984Z,4.17
2018-07-06T08:08:08.003Z,4.10
2018-07-06T08:12:51.378Z,4.03
2018-07-06T08:17:36.086Z,3.73
2018-07-06T08:22:19.620Z,5.83
2018-07-06T08:27:04.143Z,4.67
2018-07-06T08:31:47.857Z,4.87
2018-07-06T08:37:51.951Z,3.97
2018-07-06T08:42:36.842Z,4.13
2018-07-06T08:47:24.094Z,4.13
2018-07-06T08:52:07.553Z,3.87
2018-07-06T08:56:55.914Z,4.50
2018-07-06T09:01:40.465Z,5.83
2018-07-06T09:06:24.166Z,9.50
2018-07-06T09:11:07.750Z,6.40
2018-07-06T09:15:51.404Z,6.40
2018-07-06T09:20:41.490Z,9.07
2018-07-06T09:25:25.091Z,8.83
2018-07-06T09:30:09.763Z,9.33
2018-07-06T09:34:53.494Z,7.33
2018-07-06T09:39:41.964Z,6.43
2018-07-06T09:44:25.807Z,6.17
2018-07-06T09:49:10.595Z,6.67
2018-07-06T09:53:54.010Z,6.37
2018-07-06T09:58:37.769Z,6.60
2018-07-06T10:03:21.999Z,6.63
2018-07-06T10:08:05.779Z,7.80
2018-07-06T10:12:49.362Z,4.97
2018-07-06T10:17:36.192Z,6.03
2018-07-06T10:22:19.801Z,8.13
2018-07-06T10:27:06.484Z,6.17
2018-07-06T10:32:01.291Z,5.62
2018-07-06T10:36:48.394Z,9.38
2018-07-06T10:41:31.905Z,6.70
2018-07-06T10:46:16.528Z,5.90
2018-07-06T10:51:00.211Z,8.50
2018-07-06T10:55:43.809Z,5.35
2018-07-06T11:00:33.115Z,5.70
2018-07-06T11:05:16.566Z,6.15
2018-07-06T11:10:01.239Z,7.47
2018-07-06T11:14:44.833Z,5.17
2018-07-06T11:19:31.830Z,7.05
2018-07-06T11:24:15.481Z,5.70
2018-07-06T11:29:02.672Z,5.22
2018-07-06T11:33:46.339Z,5.70
2018-07-06T11:38:31.010Z,7.62
2018-07-06T11:43:14.558Z,5.53
2018-07-06T11:48:02.021Z,8.73
2018-07-06T11:52:45.561Z,6.05
2018-07-06T11:57:32.205Z,7.85
2018-07-06T12:02:15.865Z,5.60
2018-07-06T12:07:03.086Z,6.70
2018-07-06T12:11:46.617Z,5.90
2018-07-06T12:16:33.596Z,6.20
2018-07-06T12:21:17.131Z,6.08
2018-07-06T12:26:01.935Z,5.62
2018-07-06T12:30:45.555Z,4.78
2018-07-06T12:35:29.881Z,6.78
2018-07-06T12:40:17.198Z,5.08
2018-07-06T12:45:00.710Z,5.70
2018-07-06T12:49:45.085Z,4.90
2018-07-06T12:54:28.703Z,5.95
2018-07-06T12:59:12.301Z,5.12
2018-07-06T13:03:55.922Z,5.03
2018-07-06T13:08:39.527Z,5.45
2018-07-06T13:13:23.160Z,4.03
2018-07-06T13:18:07.018Z,4.03
2018-07-06T13:22:50.654Z,4.15
2018-07-06T13:27:35.230Z,4.47
2018-07-06T13:32:18.978Z,4.37
2018-07-06T13:37:06.626Z,4.65
2018-07-06T13:41:50.181Z,5.55
2018-07-06T13:46:37.495Z,4.65
2018-07-06T13:51:21.122Z,4.45
2018-07-06T13:56:06.366Z,5.03
2018-07-06T14:00:49.907Z,4.78
2018-07-06T14:05:33.506Z,4.85
2018-07-06T14:10:17.140Z,4.50
2018-07-06T14:15:00.773Z,4.92
2018-07-06T14:19:45.593Z,5.50
2018-07-06T14:24:29.105Z,4.30
2018-07-06T14:29:13.813Z,4.83
2018-07-06T14:33:57.471Z,4.13
2018-07-06T14:38:45.119Z,4.07
2018-07-06T14:43:28.687Z,4.27
2018-07-06T14:48:12.330Z,4.57
2018-07-06T14:52:55.988Z,3.80
2018-07-06T14:57:39.873Z,3.90
2018-07-06T15:02:23.530Z,4.13
2018-07-06T15:07:10.224Z,5.47
2018-07-06T15:11:53.856Z,3.83
2018-07-06T15:16:38.718Z,4.57
2018-07-06T15:21:22.458Z,3.70
2018-07-06T15:26:09.928Z,5.33
2018-07-06T15:30:53.625Z,5.53
2018-07-06T15:35:40.622Z,4.53
2018-07-06T15:40:24.256Z,3.97
2018-07-06T15:45:07.673Z,4.83
2018-07-06T15:49:55.442Z,4.40
2018-07-06T15:54:39.122Z,4.13
2018-07-06T15:59:25.802Z,4.20
2018-07-06T16:04:09.350Z,4.10
2018-07-06T16:08:52.942Z,4.63
2018-07-06T16:13:36.545Z,4.93
2018-07-06T16:18:20.187Z,3.80
2018-07-06T16:23:04.649Z,5.90
2018-07-06T16:27:53.186Z,4.30
2018-07-06T16:32:36.903Z,6.00
2018-07-06T16:37:21.710Z,5.23
2018-07-06T16:42:05.262Z,4.87
2018-07-06T16:46:50.657Z,6.53
2018-07-06T16:51:34.370Z,6.27
2018-07-06T16:56:21.515Z,4.40
2018-07-06T17:01:05.218Z,4.70
2018-07-06T17:05:48.924Z,4.40
2018-07-06T17:10:32.552Z,5.13
2018-07-06T17:15:19.917Z,4.43
2018-07-06T17:20:03.638Z,4.50
2018-07-06T17:24:47.249Z,9.20
2018-07-06T17:29:34.230Z,7.87
2018-07-06T17:34:17.847Z,8.87
2018-07-06T17:39:06.164Z,5.57
2018-07-06T17:43:49.901Z,5.43
2018-07-06T17:48:40.037Z,6.17
2018-07-06T17:53:23.538Z,5.33
2018-07-06T17:58:13.704Z,5.13
2018-07-06T18:02:57.271Z,7.50
2018-07-06T18:07:44.627Z,6.47
2018-07-06T18:12:28.131Z,8.50
2018-07-06T18:17:14.923Z,6.10
2018-07-06T18:21:58.996Z,9.47
2018-07-06T18:26:46.022Z,5.17
2018-07-06T18:31:29.650Z,5.43
2018-07-06T18:36:14.353Z,5.20
2018-07-06T18:40:57.998Z,6.77
2018-07-06T18:45:46.453Z,7.33
2018-07-06T18:50:30.128Z,6.37
2018-07-06T18:55:18.216Z,8.30
2018-07-06T19:00:01.758Z,8.33
2018-07-06T19:04:46.274Z,6.53
2018-07-06T19:09:31.102Z,8.30
2018-07-06T19:14:14.590Z,8.23
2018-07-06T19:19:04.145Z,7.73
2018-07-06T19:23:47.722Z,5.37
2018-07-06T19:28:31.623Z,7.03
2018-07-06T19:33:15.296Z,7.60
2018-07-06T19:37:58.922Z,6.27
2018-07-06T19:42:42.779Z,9.73
2018-07-06T19:47:27.303Z,6.23
2018-07-06T19:52:11.164Z,5.70
2018-07-06T19:56:57.835Z,9.30
2018-07-06T20:01:41.560Z,6.90
2018-07-06T20:06:28.488Z,6.07
2018-07-06T20:11:12.166Z,5.93
2018-07-06T20:15:56.756Z,6.67
2018-07-06T20:20:40.210Z,5.10
2018-07-06T20:25:24.925Z,5.07
2018-07-06T20:30:08.517Z,4.80
2018-07-06T20:34:52.462Z,4.97
2018-07-06T20:39:35.959Z,4.57
2018-07-06T20:44:19.616Z,7.10
2018-07-06T20:49:03.313Z,4.90
2018-07-06T20:53:46.945Z,4.53
2018-07-06T20:58:33.965Z,4.73
2018-07-06T21:03:17.706Z,4.30
2018-07-06T21:08:02.382Z,4.20
2018-07-06T21:12:46.065Z,5.13
2018-07-06T21:17:29.984Z,5.03
2018-07-06T21:22:13.596Z,4.50
2018-07-06T21:26:58.301Z,5.90
2018-07-06T21:31:41.870Z,5.30
2018-07-06T21:36:26.604Z,6.80
2018-07-06T21:41:10.311Z,5.70
2018-07-06T21:45:57.100Z,7.07
2018-07-06T21:50:40.671Z,7.93
2018-07-06T21:55:25.539Z,7.97
2018-07-06T22:00:08.943Z,7.13
2018-07-06T22:04:56.027Z,6.50
2018-07-06T22:09:39.940Z,7.57
2018-07-06T22:14:23.597Z,8.87
2018-07-06T22:19:07.062Z,9.17
2018-07-06T22:23:50.665Z,11.03
2018-07-06T22:28:35.400Z,9.20
2018-07-06T22:33:19.107Z,8.47
2018-07-06T22:38:03.749Z,11.23
2018-07-06T22:42:47.436Z,10.30
2018-07-06T22:47:31.284Z,9.73
2018-07-06T22:52:14.812Z,9.97
2018-07-06T22:56:58.345Z,11.47
2018-07-06T23:01:42.142Z,9.37
2018-07-06T23:06:27.020Z,8.27
2018-07-06T23:11:10.382Z,8.70
2018-07-06T23:15:54.230Z,9.07
2018-07-06T23:20:37.834Z,9.13
2018-07-06T23:25:21.537Z,10.50
2018-07-06T23:30:05.677Z,8.00
2018-07-06T23:34:49.391Z,7.40
2018-07-06T23:39:33.383Z,7.37
2018-07-06T23:44:17.212Z,7.87
2018-07-06T23:49:00.956Z,9.33
2018-07-06T23:53:44.432Z,9.90
2018-07-06T23:58:28.122Z,7.53
